Main page
METAR-TAF:

METAR-TAF

Airports :

Zahedan, Iran

Zahedan Airport

latitude: 29-28N, longitude: 060-53E, elevation: 1370 m

Current weather observation

The report was made 36 minutes ago, at 20:00 UTC
Calm wind
Temperature 17°C
Humidity 23%
Pressure 1020 hPa
Visibility 10 km or more
no clouds below 1500 m and no cumulonimbus

METAR: OIZH 302000Z 00000KT CAVOK 17/M04 Q1020 A3012

Time: 01:06 (20:36 UTC)

Forecast

The report was made 3 hours and 36 minutes ago, at 17:00 UTC
Forecast valid from 30 at 18 UTC to 01 at 24 UTC
Wind 10 kt from the North/Northwest
Visibility: 7000 m
Temporary
from 01 at 06 UTC to 01 at 12 UTC
Wind 16 kt from the North/Northeast
Few clouds at a height of 3000 ft, Cumulonimbus.
Few clouds at a height of 3500 ft

TAF: OIZH 301700Z 3018/0124 34005MPS 7000 NSC TEMPO 0106/0112 03008MPS FEW030CB FEW035

Weather observations and forecasts of more than 4000 airports (METAR and TAF reports).

The available stations are represented by yellow and red dots on the map.

Hover mouse over dot to see the name of the station.

Then click to see weather observations and forecasts.

To change the map : click on the green buttons with a black cross to zoom in, on the green button with a dash to zoom out, or on the green arrows for adjacent maps.


METAR-TAF: